Time;durP1;ratioP1;P1;durP2;ratioP2;P2;SDS_P1;SDS_P2;PMS_P1;PMS_P2;Temp;Humidity;BMP_temperature;BMP_pressure;BME280_temperature;BME280_humidity;BME280_pressure;Samples;Min_cycle;Max_cycle;Signal;HPM_P1;HPM_P2
2023/01/01 00:00:47;;;;;;;17.83;8.57;;;;;;;-0.01;100.00;101481.05;1698567;84;21029;-70
2023/01/01 00:03:20;;;;;;;18.50;8.77;;;;;;;0.01;100.00;101487.63;1698599;84;21495;-69
2023/01/01 00:05:51;;;;;;;18.63;9.10;;;;;;;0.05;100.00;101495.86;1698817;84;21075;-70
2023/01/01 00:11:40;;;;;;;17.67;8.23;;;;;;;0.09;100.00;101494.78;1698699;84;21005;-68
2023/01/01 00:14:08;;;;;;;21.90;9.70;;;;;;;0.09;100.00;101495.67;1698452;84;21498;-69
2023/01/01 00:16:36;;;;;;;19.37;8.60;;;;;;;0.11;100.00;101500.92;1698283;84;21562;-70
2023/01/01 00:19:03;;;;;;;19.27;9.17;;;;;;;0.10;100.00;101501.37;1698486;83;21077;-70
2023/01/01 00:25:31;;;;;;;17.13;8.00;;;;;;;0.14;100.00;101499.00;1683711;84;21086;-69
2023/01/01 00:28:00;;;;;;;17.73;8.20;;;;;;;0.17;100.00;101486.86;1683751;84;21034;-70
2023/01/01 00:31:07;;;;;;;16.73;8.33;;;;;;;0.19;100.00;101489.45;1683779;85;21002;-70
2023/01/01 00:33:36;;;;;;;15.77;7.93;;;;;;;0.20;100.00;101475.23;1683397;84;21058;-70
2023/01/01 00:36:13;;;;;;;18.80;8.80;;;;;;;0.21;100.00;101476.09;1684171;85;21018;-70
2023/01/01 00:38:40;;;;;;;17.40;8.33;;;;;;;0.21;100.00;101479.61;1683344;85;21038;-70
2023/01/01 00:41:07;;;;;;;16.03;8.00;;;;;;;0.22;100.00;101473.84;1683776;85;21487;-69
2023/01/01 00:43:40;;;;;;;16.03;8.07;;;;;;;0.23;100.00;101476.44;1683401;84;21049;-70
2023/01/01 00:46:33;;;;;;;16.07;7.33;;;;;;;0.26;100.00;101471.43;1664428;85;21038;-69
2023/01/01 00:49:02;;;;;;;15.08;7.45;;;;;;;0.27;100.00;101469.18;1683753;85;21042;-69
2023/01/01 00:51:29;;;;;;;18.03;7.60;;;;;;;0.30;100.00;101459.26;1683955;85;21018;-70
2023/01/01 00:53:56;;;;;;;19.10;9.07;;;;;;;0.32;100.00;101457.83;1683709;84;21078;-69
2023/01/01 00:56:23;;;;;;;15.50;7.73;;;;;;;0.32;100.00;101452.06;1683700;84;21034;-70
2023/01/01 00:58:52;;;;;;;17.97;8.17;;;;;;;0.33;100.00;101437.81;1683647;85;21054;-69
2023/01/01 01:06:10;;;;;;;18.40;7.67;;;;;;;0.33;100.00;101459.09;1683698;84;21528;-68
2023/01/01 01:08:45;;;;;;;16.67;8.37;;;;;;;0.32;100.00;101454.72;1683394;84;21081;-69
2023/01/01 01:11:19;;;;;;;18.90;8.17;;;;;;;0.33;100.00;101463.56;1683783;85;21069;-69
2023/01/01 01:13:48;;;;;;;18.60;8.80;;;;;;;0.34;100.00;101468.82;1683399;85;21018;-70
2023/01/01 01:16:25;;;;;;;17.50;8.43;;;;;;;0.36;100.00;101461.63;1683442;85;21074;-69
2023/01/01 01:18:59;;;;;;;19.20;9.03;;;;;;;0.37;100.00;101459.38;1683457;85;21556;-70
2023/01/01 01:21:31;;;;;;;19.23;8.70;;;;;;;0.40;100.00;101464.15;1683693;85;21022;-69
2023/01/01 01:23:58;;;;;;;18.30;8.97;;;;;;;0.38;100.00;101454.42;1685276;83;21074;-70
2023/01/01 01:26:31;;;;;;;20.30;9.67;;;;;;;0.42;100.00;101455.62;1693658;85;21045;-71
2023/01/01 01:28:58;;;;;;;16.95;8.10;;;;;;;0.43;100.00;101456.89;1693711;84;21037;-68
2023/01/01 01:31:32;;;;;;;16.47;7.97;;;;;;;0.46;100.00;101450.55;1693665;83;21005;-70
2023/01/01 01:34:18;;;;;;;18.33;8.23;;;;;;;0.49;100.00;101449.08;1693622;84;21025;-68
2023/01/01 01:36:46;;;;;;;19.57;9.20;;;;;;;0.52;100.00;101449.80;1693956;85;21021;-70
2023/01/01 01:39:14;;;;;;;18.30;8.60;;;;;;;0.56;100.00;101430.55;1693330;83;21069;-70
2023/01/01 01:41:41;;;;;;;17.87;8.90;;;;;;;0.58;100.00;101434.00;1693678;84;21494;-70
2023/01/01 01:44:49;;;;;;;20.03;9.50;;;;;;;0.60;100.00;101425.47;1693661;83;20998;-70
2023/01/01 01:47:38;;;;;;;15.53;7.93;;;;;;;0.63;100.00;101419.16;1693664;84;21534;-70
2023/01/01 01:50:19;;;;;;;17.40;8.20;;;;;;;0.64;100.00;101421.75;1693772;84;21045;-70
2023/01/01 01:53:22;;;;;;;17.47;8.70;;;;;;;0.68;100.00;101408.67;1689956;84;21503;-70
2023/01/01 01:55:58;;;;;;;17.00;8.25;;;;;;;0.71;100.00;101407.67;1690571;85;21033;-70
2023/01/01 01:58:31;;;;;;;17.43;8.33;;;;;;;0.73;100.00;101401.33;1693720;85;20966;-70
2023/01/01 02:00:58;;;;;;;19.12;8.35;;;;;;;0.77;100.00;101392.72;1693682;84;21045;-71
2023/01/01 02:03:42;;;;;;;20.97;9.77;;;;;;;0.80;100.00;101391.25;1693853;85;21504;-70
2023/01/01 02:06:10;;;;;;;18.33;8.77;;;;;;;0.82;100.00;101402.68;1692960;84;21074;-69
2023/01/01 02:08:37;;;;;;;19.53;8.90;;;;;;;0.86;100.00;101402.06;1693630;84;20978;-69
2023/01/01 02:11:13;;;;;;;17.43;8.40;;;;;;;0.88;100.00;101396.19;1652607;85;21036;-70
2023/01/01 02:13:40;;;;;;;18.73;8.90;;;;;;;0.90;100.00;101389.86;1693667;85;21487;-70
2023/01/01 02:16:28;;;;;;;17.83;8.97;;;;;;;0.93;100.00;101387.50;1693430;85;21073;-70
2023/01/01 02:19:48;;;;;;;19.10;10.07;;;;;;;0.95;100.00;101389.14;1693724;85;21061;-69
2023/01/01 02:22:35;;;;;;;18.90;9.87;;;;;;;1.00;100.00;101392.06;1673111;85;21096;-69
2023/01/01 02:25:52;;;;;;;19.10;9.20;;;;;;;1.03;100.00;101395.44;1660344;86;21022;-69
2023/01/01 02:28:59;;;;;;;22.43;10.13;;;;;;;1.06;100.00;101387.30;1661205;85;21037;-70
2023/01/01 02:31:36;;;;;;;19.43;9.53;;;;;;;1.09;100.00;101379.13;1656686;87;21066;-69
2023/01/01 02:34:06;;;;;;;20.73;9.87;;;;;;;1.13;100.00;101367.41;1661301;86;21034;-70
2023/01/01 02:36:36;;;;;;;19.63;9.23;;;;;;;1.16;100.00;101379.69;1666783;86;21056;-71
2023/01/01 02:39:05;;;;;;;22.27;10.40;;;;;;;1.17;100.00;101392.09;1666667;86;21005;-70
2023/01/01 02:41:55;;;;;;;20.40;10.63;;;;;;;1.20;100.00;101383.91;1655972;86;21029;-70
2023/01/01 02:44:25;;;;;;;24.03;10.47;;;;;;;1.22;100.00;101371.41;1666495;86;21056;-69
2023/01/01 02:46:51;;;;;;;21.17;10.17;;;;;;;1.25;100.00;101365.89;1666738;86;21013;-70
2023/01/01 02:49:18;;;;;;;21.33;10.93;;;;;;;1.27;100.00;101369.33;1666767;86;21033;-70
2023/01/01 02:52:12;;;;;;;21.47;10.70;;;;;;;1.28;100.00;101360.89;1666488;86;21069;-69
2023/01/01 02:55:02;;;;;;;23.50;10.28;;;;;;;1.30;100.00;101363.00;1666314;85;21085;-70
2023/01/01 02:57:51;;;;;;;20.43;10.13;;;;;;;1.34;100.00;101352.56;1666213;85;21038;-69
2023/01/01 03:04:16;;;;;;;20.67;10.53;;;;;;;1.40;100.00;101339.38;1666584;86;21029;-71
2023/01/01 03:07:07;;;;;;;21.03;10.77;;;;;;;1.44;100.00;101327.64;1666745;86;21058;-70
2023/01/01 03:10:25;;;;;;;23.53;10.83;;;;;;;1.46;100.00;101331.94;1639446;85;21045;-71
2023/01/01 03:13:13;;;;;;;24.77;12.73;;;;;;;1.49;100.00;101334.45;1666806;85;21053;-70
2023/01/01 03:16:36;;;;;;;24.43;11.53;;;;;;;1.55;100.00;101359.06;1666562;84;21045;-71
2023/01/01 03:19:16;;;;;;;22.10;11.30;;;;;;;1.57;100.00;101359.36;1666961;86;20985;-70
2023/01/01 03:25:52;;;;;;;23.07;11.37;;;;;;;1.64;100.00;101386.09;1630595;87;21575;-69
2023/01/01 03:28:23;;;;;;;24.33;11.83;;;;;;;1.68;100.00;101361.45;1630423;85;21066;-70
2023/01/01 03:30:51;;;;;;;27.30;13.67;;;;;;;1.69;100.00;101333.38;1657337;86;21118;-71
2023/01/01 03:33:27;;;;;;;22.73;11.73;;;;;;;1.70;100.00;101347.59;1657061;87;21006;-70
2023/01/01 03:36:09;;;;;;;26.23;13.13;;;;;;;1.69;100.00;101348.05;1666445;86;21060;-69
2023/01/01 03:42:58;;;;;;;23.75;12.00;;;;;;;1.71;100.00;101343.48;1657650;86;21045;-69
2023/01/01 03:45:36;;;;;;;25.67;14.47;;;;;;;1.70;100.00;101334.27;1666656;86;21514;-70
2023/01/01 03:48:05;;;;;;;26.37;13.03;;;;;;;1.69;100.00;101340.52;1666674;86;21393;-70
2023/01/01 03:51:03;;;;;;;24.23;12.70;;;;;;;1.67;100.00;101339.27;1666656;85;21527;-70
2023/01/01 03:53:41;;;;;;;25.30;13.50;;;;;;;1.66;100.00;101349.53;1654248;86;21050;-70
2023/01/01 03:56:29;;;;;;;26.00;13.27;;;;;;;1.65;100.00;101360.30;1657445;87;21037;-69
2023/01/01 03:59:43;;;;;;;23.33;12.23;;;;;;;1.63;100.00;101352.83;1653550;87;21061;-70
2023/01/01 04:02:11;;;;;;;23.38;11.78;;;;;;;1.63;100.00;101351.50;1666727;86;21072;-70
2023/01/01 04:04:38;;;;;;;28.13;13.17;;;;;;;1.61;100.00;101342.73;1666494;86;21475;-71
2023/01/01 04:07:07;;;;;;;23.27;12.27;;;;;;;1.56;100.00;101346.98;1666279;86;21041;-70
2023/01/01 04:09:35;;;;;;;24.00;12.67;;;;;;;1.57;100.00;101351.36;1666345;86;21527;-71
2023/01/01 04:12:05;;;;;;;24.27;12.60;;;;;;;1.56;100.00;101348.32;1666572;86;21041;-70
2023/01/01 04:14:38;;;;;;;24.53;12.37;;;;;;;1.53;100.00;101349.81;1666275;86;21034;-70
2023/01/01 04:17:07;;;;;;;25.43;13.05;;;;;;;1.51;100.00;101353.88;1666674;86;21072;-70
2023/01/01 04:19:35;;;;;;;24.67;11.93;;;;;;;1.50;100.00;101355.30;1657123;87;21527;-70
2023/01/01 04:22:03;;;;;;;22.70;12.33;;;;;;;1.51;100.00;101355.22;1657290;87;21033;-70
2023/01/01 04:24:31;;;;;;;24.57;12.70;;;;;;;1.50;100.00;101358.81;1666226;85;21033;-70
2023/01/01 04:27:04;;;;;;;23.17;11.30;;;;;;;1.48;100.00;101363.84;1685986;82;20995;-69
2023/01/01 04:29:37;;;;;;;26.87;12.43;;;;;;;1.48;100.00;101363.37;1717898;83;21072;-70
2023/01/01 04:32:04;;;;;;;27.93;13.17;;;;;;;1.49;100.00;101364.25;1718065;82;21467;-70
2023/01/01 04:34:32;;;;;;;26.37;13.67;;;;;;;1.48;100.00;101374.03;1717815;83;21049;-70
2023/01/01 04:37:04;;;;;;;22.97;12.03;;;;;;;1.49;100.00;101364.25;1717771;83;20993;-71
2023/01/01 04:39:40;;;;;;;24.23;11.37;;;;;;;1.51;100.00;101365.03;1718142;83;21037;-70
2023/01/01 04:42:14;;;;;;;24.50;12.23;;;;;;;1.49;100.00;101359.77;1717888;83;21519;-70
2023/01/01 04:44:49;;;;;;;22.53;11.20;;;;;;;1.48;100.00;101348.70;1717862;82;21002;-71
2023/01/01 04:47:16;;;;;;;22.57;11.17;;;;;;;1.46;100.00;101349.27;1717944;83;21065;-69
2023/01/01 04:49:43;;;;;;;23.77;12.20;;;;;;;1.46;100.00;101341.27;1718217;83;21006;-71
2023/01/01 04:52:12;;;;;;;22.00;11.07;;;;;;;1.46;100.00;101340.41;1718069;83;21068;-70
2023/01/01 04:54:40;;;;;;;25.23;10.90;;;;;;;1.45;100.00;101358.22;1718206;83;20986;-70
2023/01/01 04:57:18;;;;;;;21.50;10.27;;;;;;;1.44;100.00;101359.14;1717988;83;21017;-71
2023/01/01 04:59:49;;;;;;;21.70;10.17;;;;;;;1.44;100.00;101359.14;1718136;82;21093;-71
2023/01/01 05:02:30;;;;;;;21.37;10.80;;;;;;;1.44;100.00;101353.81;1717949;83;20990;-70
2023/01/01 05:05:00;;;;;;;26.05;12.88;;;;;;;1.41;100.00;101360.62;1718387;83;21030;-70
2023/01/01 05:07:28;;;;;;;21.00;10.67;;;;;;;1.40;100.00;101367.38;1718019;83;21037;-71
2023/01/01 05:09:58;;;;;;;24.77;12.00;;;;;;;1.38;100.00;101370.59;1718244;83;21046;-70
2023/01/01 05:12:31;;;;;;;24.07;11.10;;;;;;;1.38;100.00;101379.47;1718257;83;21080;-69
2023/01/01 05:14:57;;;;;;;22.07;10.90;;;;;;;1.40;100.00;101377.58;1718346;83;21045;-68
2023/01/01 05:17:25;;;;;;;24.87;11.27;;;;;;;1.42;100.00;101369.03;1717773;83;21605;-70
2023/01/01 05:19:52;;;;;;;24.07;11.47;;;;;;;1.44;100.00;101366.29;1718263;83;20993;-70
2023/01/01 05:22:19;;;;;;;22.50;10.07;;;;;;;1.46;100.00;101374.59;1717930;83;21088;-70
2023/01/01 05:24:46;;;;;;;20.87;9.83;;;;;;;1.47;100.00;101378.10;1717877;82;21026;-70
2023/01/01 05:27:14;;;;;;;20.77;11.03;;;;;;;1.49;100.00;101378.44;1717889;81;21057;-69
2023/01/01 05:29:41;;;;;;;26.50;12.17;;;;;;;1.50;100.00;101384.62;1718187;83;21006;-70
2023/01/01 05:32:08;;;;;;;22.87;11.57;;;;;;;1.52;100.00;101386.73;1718172;83;20986;-70
2023/01/01 05:34:35;;;;;;;22.93;10.63;;;;;;;1.55;100.00;101383.05;1717950;83;21002;-70
2023/01/01 05:37:02;;;;;;;22.30;10.70;;;;;;;1.56;100.00;101382.09;1718095;83;21037;-71
2023/01/01 05:39:29;;;;;;;21.73;10.10;;;;;;;1.57;100.00;101383.35;1718261;83;21030;-69
2023/01/01 05:41:59;;;;;;;21.73;10.43;;;;;;;1.59;100.00;101371.28;1717879;83;21001;-70
2023/01/01 05:44:27;;;;;;;20.10;9.63;;;;;;;1.59;100.00;101366.80;1718029;82;21061;-71
2023/01/01 05:46:53;;;;;;;23.70;11.30;;;;;;;1.63;100.00;101364.83;1718160;83;20990;-69
2023/01/01 05:49:21;;;;;;;22.53;10.27;;;;;;;1.63;100.00;101368.38;1717743;83;21029;-70
2023/01/01 05:51:48;;;;;;;21.87;10.13;;;;;;;1.65;100.00;101361.64;1718000;83;21030;-69
2023/01/01 05:54:16;;;;;;;23.20;10.77;;;;;;;1.66;100.00;101366.86;1717897;83;21069;-69
2023/01/01 05:56:43;;;;;;;19.37;9.57;;;;;;;1.70;100.00;101371.59;1718149;82;21034;-70
2023/01/01 05:59:10;;;;;;;24.03;11.80;;;;;;;1.73;100.00;101378.08;1717795;82;21038;-69
2023/01/01 06:01:37;;;;;;;23.33;11.10;;;;;;;1.73;100.00;101370.08;1718177;83;21057;-69
2023/01/01 06:04:04;;;;;;;22.23;10.87;;;;;;;1.75;100.00;101378.00;1718128;83;21061;-69
2023/01/01 06:06:33;;;;;;;25.47;11.80;;;;;;;1.77;100.00;101378.33;1718050;83;21081;-71
2023/01/01 06:09:15;;;;;;;21.50;10.50;;;;;;;1.80;100.00;101371.47;1718166;83;21018;-70
2023/01/01 06:11:43;;;;;;;22.30;10.28;;;;;;;1.85;100.00;101380.57;1718256;83;21062;-69
2023/01/01 06:14:11;;;;;;;21.10;8.77;;;;;;;1.86;100.00;101372.94;1718026;83;21069;-71
2023/01/01 06:16:38;;;;;;;21.40;9.60;;;;;;;1.88;100.00;101370.59;1718113;83;21001;-68
2023/01/01 06:19:05;;;;;;;20.10;10.27;;;;;;;1.92;100.00;101373.11;1717956;82;21037;-69
2023/01/01 06:21:32;;;;;;;22.97;11.13;;;;;;;1.92;100.00;101361.11;1718403;83;21077;-70
2023/01/01 06:23:59;;;;;;;21.13;10.53;;;;;;;1.95;100.00;101360.91;1718197;83;21072;-70
2023/01/01 06:26:30;;;;;;;21.13;10.53;;;;;;;1.98;100.00;101372.28;1717920;83;21033;-71
2023/01/01 06:28:58;;;;;;;22.80;10.63;;;;;;;2.02;100.00;101370.30;1718023;83;21038;-70
2023/01/01 06:31:25;;;;;;;20.27;10.20;;;;;;;2.05;100.00;101375.48;1718408;83;21037;-70
2023/01/01 06:33:52;;;;;;;22.30;10.63;;;;;;;2.07;100.00;101377.59;1718389;83;21518;-71
2023/01/01 06:36:21;;;;;;;21.03;9.93;;;;;;;2.08;100.00;101380.66;1717996;83;21026;-71
2023/01/01 06:38:52;;;;;;;22.03;9.93;;;;;;;2.11;100.00;101380.95;1718285;83;20994;-69
2023/01/01 06:41:21;;;;;;;23.07;11.03;;;;;;;2.12;100.00;101385.36;1718279;83;20993;-70
2023/01/01 06:43:50;;;;;;;24.73;11.77;;;;;;;2.16;100.00;101398.91;1718185;83;20997;-69
2023/01/01 06:46:28;;;;;;;24.03;11.10;;;;;;;2.19;100.00;101414.77;1717754;83;21073;-70
2023/01/01 06:48:59;;;;;;;22.63;10.63;;;;;;;2.21;100.00;101412.42;1717885;83;21061;-70
2023/01/01 06:51:30;;;;;;;24.47;11.20;;;;;;;2.23;100.00;101407.86;1718106;83;21014;-69
2023/01/01 06:54:01;;;;;;;24.70;10.77;;;;;;;2.25;100.00;101407.77;1717986;83;21471;-70
2023/01/01 06:56:28;;;;;;;20.87;10.00;;;;;;;2.28;100.00;101413.80;1718219;83;20993;-70
2023/01/01 06:58:55;;;;;;;22.77;10.30;;;;;;;2.31;100.00;101419.92;1718387;83;21532;-70
2023/01/01 07:01:25;;;;;;;23.50;10.50;;;;;;;2.35;100.00;101429.47;1718180;83;21038;-69
2023/01/01 07:03:57;;;;;;;22.70;11.07;;;;;;;2.36;100.00;101432.06;1717783;83;21518;-70
2023/01/01 07:06:26;;;;;;;;;;;;;;;2.39;100.00;101437.23;1720539;83;21074;-70
2023/01/01 07:08:53;;;;;;;27.03;11.50;;;;;;;2.42;100.00;101437.05;1683524;85;20434;-72
2023/01/01 07:11:21;;;;;;;24.83;12.23;;;;;;;2.42;100.00;101446.39;1683324;84;21121;-70
2023/01/01 07:13:48;;;;;;;23.23;11.13;;;;;;;2.44;100.00;101449.87;1683489;85;21030;-69
2023/01/01 07:16:15;;;;;;;24.27;10.80;;;;;;;2.45;100.00;101454.72;1683400;85;20998;-70
2023/01/01 07:18:42;;;;;;;23.60;11.50;;;;;;;2.47;100.00;101452.34;1683605;84;21057;-70
2023/01/01 07:21:33;;;;;;;21.20;9.97;;;;;;;2.49;100.00;101454.94;1683458;85;20978;-71
2023/01/01 07:24:02;;;;;;;22.03;10.30;;;;;;;2.51;100.00;101452.19;1661346;86;21543;-69
2023/01/01 07:26:31;;;;;;;24.00;11.40;;;;;;;2.53;100.00;101450.28;1661316;85;20998;-70
2023/01/01 07:28:58;;;;;;;23.70;11.50;;;;;;;2.53;100.00;101455.14;1661218;86;21559;-71
2023/01/01 07:31:25;;;;;;;23.40;11.37;;;;;;;2.55;100.00;101452.39;1656608;87;21077;-70
2023/01/01 07:33:52;;;;;;;20.90;10.47;;;;;;;2.58;100.00;101452.23;1661447;86;21028;-71
2023/01/01 07:36:19;;;;;;;27.00;12.33;;;;;;;2.60;100.00;101453.00;1656586;85;21539;-70
2023/01/01 07:38:46;;;;;;;25.83;11.93;;;;;;;2.62;100.00;101442.64;1661144;86;21053;-70
2023/01/01 07:41:13;;;;;;;23.53;11.70;;;;;;;2.64;100.00;101435.88;1660885;86;21539;-70
2023/01/01 07:43:41;;;;;;;26.20;12.13;;;;;;;2.65;100.00;101441.11;1661250;86;21049;-70
2023/01/01 07:46:11;;;;;;;27.20;12.77;;;;;;;2.67;100.00;101441.03;1661244;86;21045;-69
2023/01/01 07:48:38;;;;;;;28.17;12.97;;;;;;;2.72;100.00;101436.78;1661025;86;21021;-70
2023/01/01 07:51:04;;;;;;;25.57;12.27;;;;;;;2.73;100.00;101433.17;1661307;86;21507;-70
2023/01/01 07:53:33;;;;;;;23.83;11.97;;;;;;;2.77;100.00;101442.73;1656777;85;21038;-70
2023/01/01 07:55:59;;;;;;;25.57;12.87;;;;;;;2.80;100.00;101444.75;1661127;86;21503;-72
2023/01/01 07:58:28;;;;;;;24.73;12.07;;;;;;;2.81;100.00;101442.93;1661332;86;21500;-70
2023/01/01 08:00:56;;;;;;;23.40;11.37;;;;;;;2.82;100.00;101444.66;1661411;86;21452;-71
2023/01/01 08:07:18;;;;;;;26.23;12.70;;;;;;;2.89;100.00;96454.23;1666840;85;21081;-70
2023/01/01 08:09:45;;;;;;;25.53;13.03;;;;;;;2.91;100.00;96512.73;1666969;85;21116;-69
2023/01/01 08:12:12;;;;;;;25.83;12.17;;;;;;;2.90;100.00;96557.78;1666784;86;21006;-70
2023/01/01 08:14:40;;;;;;;24.57;11.97;;;;;;;2.91;100.00;96601.61;1666848;86;21049;-70
2023/01/01 08:20:03;;;;;;;22.73;10.80;;;;;;;2.92;100.00;96635.78;1666907;86;21045;-71
2023/01/01 08:22:30;;;;;;;22.57;11.03;;;;;;;2.95;100.00;96627.38;1666876;86;21487;-71
2023/01/01 08:24:57;;;;;;;24.70;11.57;;;;;;;3.00;100.00;96629.72;1666917;85;21037;-69
2023/01/01 08:27:26;;;;;;;24.00;11.43;;;;;;;3.03;100.00;96644.00;1666644;86;21083;-70
2023/01/01 08:29:53;;;;;;;25.13;11.97;;;;;;;3.05;100.00;96649.13;1666997;86;21040;-70
2023/01/01 08:32:20;;;;;;;22.73;10.57;;;;;;;3.07;100.00;96656.94;1666425;85;21096;-70
2023/01/01 08:34:47;;;;;;;26.03;11.63;;;;;;;3.12;100.00;96655.28;1666650;86;21073;-70
2023/01/01 08:37:14;;;;;;;24.57;11.20;;;;;;;3.15;100.00;96647.36;1666854;86;21056;-71
2023/01/01 08:39:41;;;;;;;23.57;11.43;;;;;;;3.15;100.00;96640.20;1666813;86;21573;-71
2023/01/01 08:42:08;;;;;;;22.33;11.50;;;;;;;3.20;100.00;96646.23;1666536;86;21097;-71
2023/01/01 08:44:38;;;;;;;22.57;11.00;;;;;;;3.23;100.00;96651.98;1666602;84;21088;-70
2023/01/01 08:47:05;;;;;;;22.87;10.70;;;;;;;3.27;100.00;96648.37;1666766;86;21546;-70
2023/01/01 08:49:34;;;;;;;23.30;10.40;;;;;;;3.31;100.00;96645.63;1666489;86;21072;-70
2023/01/01 08:52:02;;;;;;;25.90;11.37;;;;;;;3.36;100.00;96639.64;1666551;86;21085;-70
2023/01/01 08:54:29;;;;;;;20.50;10.30;;;;;;;3.39;100.00;96644.05;1666641;86;21499;-69
2023/01/01 08:56:56;;;;;;;23.97;10.80;;;;;;;3.42;100.00;96647.64;1666862;86;21041;-70
2023/01/01 08:59:24;;;;;;;21.93;10.90;;;;;;;3.47;100.00;96648.36;1666739;86;21045;-70
2023/01/01 09:01:52;;;;;;;21.97;10.67;;;;;;;3.50;100.00;96633.23;1666803;85;20993;-71
2023/01/01 09:04:19;;;;;;;22.63;11.77;;;;;;;3.54;100.00;96631.80;1666416;85;21045;-71
2023/01/01 09:06:46;;;;;;;22.03;11.63;;;;;;;3.56;100.00;96632.91;1666930;86;21025;-70
2023/01/01 09:09:13;;;;;;;21.03;10.83;;;;;;;3.57;100.00;96622.01;1666767;86;20993;-71
2023/01/01 09:11:40;;;;;;;23.13;10.93;;;;;;;3.60;100.00;96626.13;1666736;86;21028;-71
2023/01/01 09:14:07;;;;;;;21.40;10.47;;;;;;;3.63;100.00;96627.05;1611891;85;21033;-72
2023/01/01 09:16:34;;;;;;;21.87;10.50;;;;;;;3.67;100.00;96618.09;1667114;86;21064;-71
2023/01/01 09:19:02;;;;;;;22.83;10.93;;;;;;;3.70;100.00;96613.65;1667213;85;21069;-70
2023/01/01 09:21:29;;;;;;;22.97;11.83;;;;;;;3.72;100.00;96617.77;1667958;86;21021;-70
2023/01/01 09:23:55;;;;;;;25.57;12.97;;;;;;;3.78;100.00;96622.77;1666728;86;21037;-70
2023/01/01 09:26:22;;;;;;;21.80;11.47;;;;;;;3.82;100.00;96624.51;1666791;84;21056;-71
2023/01/01 09:28:50;;;;;;;22.13;10.97;;;;;;;3.87;100.00;96623.36;1679191;85;21101;-70
2023/01/01 09:31:22;;;;;;;20.50;10.80;;;;;;;3.90;100.00;96606.38;1690802;85;21507;-69
2023/01/01 09:33:50;;;;;;;22.83;10.83;;;;;;;3.98;100.00;96594.61;1690897;85;20998;-71
2023/01/01 09:36:27;;;;;;;22.67;10.93;;;;;;;4.06;100.00;96581.01;1690905;85;21026;-71
2023/01/01 09:38:55;;;;;;;22.63;11.33;;;;;;;4.14;100.00;96574.58;1690824;85;21089;-71
2023/01/01 09:41:51;;;;;;;21.97;11.63;;;;;;;4.22;100.00;96580.20;1690986;85;21081;-71
2023/01/01 09:44:48;;;;;;;22.90;11.60;;;;;;;4.25;100.00;96583.77;1690930;85;21049;-70
2023/01/01 09:47:29;;;;;;;21.07;10.47;;;;;;;4.28;100.00;96580.14;1690646;84;21097;-69
2023/01/01 09:50:00;;;;;;;21.33;10.53;;;;;;;4.34;100.00;96575.81;1691132;84;21046;-71
2023/01/01 09:52:51;;;;;;;23.50;11.50;;;;;;;4.37;100.00;96571.34;1690695;85;21054;-70
2023/01/01 09:55:42;;;;;;;24.47;11.57;;;;;;;4.40;100.00;96570.91;1688452;85;21170;-71
2023/01/01 09:58:10;;;;;;;22.63;11.40;;;;;;;4.45;100.00;96554.22;1691018;84;21018;-70
2023/01/01 10:00:42;;;;;;;23.17;11.83;;;;;;;4.48;100.00;96546.59;1690689;85;21054;-71
2023/01/01 10:03:47;;;;;;;22.40;10.50;;;;;;;4.53;100.00;96541.40;1686710;84;21046;-70
2023/01/01 10:06:28;;;;;;;24.53;11.37;;;;;;;4.57;100.00;96529.74;1690780;85;21046;-71
2023/01/01 10:09:24;;;;;;;22.73;11.57;;;;;;;4.61;100.00;96508.19;1690574;85;21130;-69
2023/01/01 10:12:24;;;;;;;21.03;10.90;;;;;;;4.68;100.00;96506.80;1690944;85;21046;-71
2023/01/01 10:14:59;;;;;;;;;;;;;;;4.74;100.00;96490.66;1648539;85;21078;-69
2023/01/01 10:17:35;;;;;;;20.30;10.27;;;;;;;4.80;100.00;96480.11;1690714;84;20091;-70
2023/01/01 10:20:06;;;;;;;22.63;11.40;;;;;;;4.87;100.00;96482.19;1635166;86;21058;-70
2023/01/01 10:22:43;;;;;;;23.53;11.87;;;;;;;4.93;100.00;96479.98;1663475;85;21030;-70
2023/01/01 10:25:26;;;;;;;21.50;11.57;;;;;;;4.99;100.00;96472.38;1690915;85;21041;-70
2023/01/01 10:27:59;;;;;;;23.05;10.98;;;;;;;5.07;100.00;96458.71;1661650;86;21042;-70
2023/01/01 10:30:27;;;;;;;21.03;11.23;;;;;;;5.11;100.00;96450.52;1722887;83;21046;-70
2023/01/01 10:32:55;;;;;;;20.40;10.67;;;;;;;5.13;100.00;96436.91;1723114;83;21048;-70
2023/01/01 10:35:39;;;;;;;21.80;10.87;;;;;;;5.20;100.00;96429.61;1722964;83;21084;-71
2023/01/01 10:38:06;;;;;;;22.97;11.57;;;;;;;5.25;100.00;96425.73;1722962;83;21073;-70
2023/01/01 10:40:34;;;;;;;21.50;11.40;;;;;;;5.28;100.00;96415.91;1723257;82;21060;-70
2023/01/01 10:43:02;;;;;;;20.97;11.17;;;;;;;5.33;100.00;96413.38;1723203;83;21052;-70
2023/01/01 10:45:35;;;;;;;25.30;12.63;;;;;;;5.39;100.00;96406.29;1723086;83;21029;-70
2023/01/01 10:48:21;;;;;;;22.70;11.53;;;;;;;5.45;100.00;96397.86;1723356;83;21052;-71
2023/01/01 10:51:05;;;;;;;22.87;11.73;;;;;;;5.51;100.00;96379.55;1723137;82;20994;-70
2023/01/01 10:53:39;;;;;;;25.93;13.20;;;;;;;5.60;100.00;96373.34;1721671;83;21037;-70
2023/01/01 10:56:14;;;;;;;26.50;13.67;;;;;;;5.71;100.00;96323.76;1723121;83;21752;-70
2023/01/01 10:58:57;;;;;;;26.00;13.90;;;;;;;5.80;100.00;96318.07;1723195;82;21040;-70
2023/01/01 11:01:27;;;;;;;25.72;13.68;;;;;;;5.85;100.00;96273.95;1723276;83;21531;-70
2023/01/01 11:04:09;;;;;;;25.50;13.53;;;;;;;5.96;100.00;96264.31;1723151;83;21064;-70
2023/01/01 11:06:41;;;;;;;25.63;12.60;;;;;;;6.01;100.00;96243.78;1723339;83;20982;-69
2023/01/01 11:09:38;;;;;;;24.05;12.28;;;;;;;6.06;100.00;96242.55;1723195;83;21539;-70
2023/01/01 11:12:06;;;;;;;24.07;12.60;;;;;;;6.11;100.00;96237.00;1723243;83;21064;-68
2023/01/01 11:14:39;;;;;;;24.83;12.50;;;;;;;6.17;100.00;96225.34;1723055;83;21562;-70
2023/01/01 11:17:07;;;;;;;21.77;11.93;;;;;;;6.24;100.00;96224.68;1723214;83;21037;-71
2023/01/01 11:19:38;;;;;;;23.50;12.00;;;;;;;6.28;100.00;96211.08;1671512;83;21049;-69
2023/01/01 11:22:06;;;;;;;25.20;12.90;;;;;;;6.33;100.00;96207.69;1723193;83;21017;-70
2023/01/01 11:24:34;;;;;;;22.67;12.17;;;;;;;6.38;100.00;96209.94;1723192;83;21017;-69
2023/01/01 11:27:21;;;;;;;23.23;12.67;;;;;;;6.42;100.00;96199.02;1723199;83;21041;-69
2023/01/01 11:29:47;;;;;;;22.13;12.47;;;;;;;6.48;100.00;96195.09;1726667;83;21029;-70
2023/01/01 11:32:22;;;;;;;23.13;12.53;;;;;;;6.53;100.00;96178.55;1727927;83;21032;-70
2023/01/01 11:35:01;;;;;;;24.80;13.20;;;;;;;6.58;100.00;96182.67;1719472;83;21021;-70
2023/01/01 11:37:34;;;;;;;22.93;12.50;;;;;;;6.63;100.00;96181.43;1728086;83;21005;-71
2023/01/01 12:56:19;;;;;;;22.97;12.77;;;;;;;7.54;100.00;96165.75;1722099;83;21171;-69
2023/01/01 12:59:06;;;;;;;23.93;12.43;;;;;;;7.56;100.00;96183.79;1717551;83;21066;-69
2023/01/01 13:01:35;;;;;;;22.87;12.67;;;;;;;7.57;100.00;96181.91;1717049;82;21050;-68
2023/01/01 13:04:18;;;;;;;22.07;12.30;;;;;;;7.56;100.00;96185.13;1718083;82;21543;-69
2023/01/01 13:06:54;;;;;;;23.20;12.90;;;;;;;7.55;100.00;96185.38;1717970;83;21053;-70
2023/01/01 13:09:25;;;;;;;23.87;12.60;;;;;;;7.54;100.00;96166.27;1718241;83;21034;-69
2023/01/01 13:12:00;;;;;;;21.30;12.50;;;;;;;7.53;100.00;96164.66;1718491;83;21496;-69
2023/01/01 13:14:30;;;;;;;23.10;12.50;;;;;;;7.52;100.00;96168.39;1718346;83;21064;-70
2023/01/01 13:16:59;;;;;;;24.57;13.30;;;;;;;7.53;100.00;96189.65;1697148;83;20990;-70
2023/01/01 13:19:36;;;;;;;25.03;12.27;;;;;;;7.53;100.00;96203.63;1718438;83;21084;-70
2023/01/01 13:22:33;;;;;;;25.57;12.67;;;;;;;7.53;100.00;96223.25;1718309;82;21033;-70
2023/01/01 13:25:11;;;;;;;22.90;12.50;;;;;;;7.52;100.00;96251.18;1718392;82;20969;-70
2023/01/01 13:28:03;;;;;;;22.07;11.87;;;;;;;7.50;100.00;96272.13;1718130;83;21037;-69
2023/01/01 13:30:42;;;;;;;23.07;11.43;;;;;;;7.49;100.00;96293.86;1718260;83;20970;-70